Time;durP1;ratioP1;P1;durP2;ratioP2;P2;SDS_P1;SDS_P2;PMS_P1;PMS_P2;Temp;Humidity;BMP_temperature;BMP_pressure;BME280_temperature;BME280_humidity;BME280_pressure;Samples;Min_cycle;Max_cycle;Signal;HPM_P1;HPM_P2
2023/01/28 00:02:30;;;;;;;9.77;8.77;;;;;;;4.85;100.00;102807.56;5291189;28;20369;-76
2023/01/28 00:05:02;;;;;;;10.40;9.40;;;;;;;4.79;100.00;102800.78;5292941;28;20024;-77
2023/01/28 00:07:34;;;;;;;10.15;9.15;;;;;;;4.79;100.00;102802.53;5294806;28;20055;-76
2023/01/28 00:10:06;;;;;;;9.38;8.48;;;;;;;4.77;100.00;102812.13;5295288;28;20492;-76
2023/01/28 00:12:37;;;;;;;9.02;8.13;;;;;;;4.80;100.00;102810.28;5277718;28;20374;-77
2023/01/28 00:15:09;;;;;;;9.77;8.38;;;;;;;4.75;100.00;102814.75;5292906;28;20142;-77
2023/01/28 00:17:40;;;;;;;10.68;9.65;;;;;;;4.68;100.00;102805.44;5297055;28;20024;-77
2023/01/28 00:20:12;;;;;;;10.07;9.02;;;;;;;4.73;100.00;102810.50;5295235;28;20151;-78
2023/01/28 00:22:47;;;;;;;9.50;8.60;;;;;;;4.76;100.00;102810.41;5296238;28;20028;-75
2023/01/28 00:25:19;;;;;;;9.50;8.60;;;;;;;4.65;100.00;102818.50;5267100;28;20024;-77
2023/01/28 00:27:51;;;;;;;9.60;8.68;;;;;;;4.62;100.00;102816.00;5297767;28;20027;-77
2023/01/28 00:30:22;;;;;;;9.55;8.60;;;;;;;4.66;100.00;102819.34;5296863;28;20048;-78
2023/01/28 00:32:54;;;;;;;10.02;9.02;;;;;;;4.67;100.00;102814.13;5276605;28;20384;-78
2023/01/28 00:35:25;;;;;;;9.82;8.88;;;;;;;4.71;100.00;102822.69;5295199;28;20496;-76
2023/01/28 00:37:57;;;;;;;9.65;8.65;;;;;;;4.67;100.00;102815.88;5296563;28;20032;-77
2023/01/28 00:40:29;;;;;;;10.32;8.88;;;;;;;4.74;100.00;102836.44;5282136;28;20024;-77
2023/01/28 00:43:00;;;;;;;9.38;8.38;;;;;;;4.75;100.00;102830.34;5298640;28;20028;-78
2023/01/28 00:45:32;;;;;;;9.27;8.38;;;;;;;4.71;100.00;102839.13;5298665;28;20481;-77
2023/01/28 00:48:03;;;;;;;10.23;9.20;;;;;;;4.69;100.00;102835.69;5299792;28;20048;-78
2023/01/28 00:50:35;;;;;;;10.73;9.63;;;;;;;4.68;100.00;102831.41;5298944;28;20027;-75
2023/01/28 00:53:06;;;;;;;9.80;8.80;;;;;;;4.71;100.00;102828.72;5296096;28;20260;-77
2023/01/28 00:55:38;;;;;;;11.32;9.43;;;;;;;4.68;100.00;102841.78;5300989;28;20119;-78
2023/01/28 00:58:09;;;;;;;9.95;8.95;;;;;;;4.66;100.00;102830.63;5299146;28;20235;-78
2023/01/28 01:00:40;;;;;;;10.48;9.23;;;;;;;4.62;100.00;102824.66;5299167;28;20059;-77
2023/01/28 01:03:12;;;;;;;10.15;9.07;;;;;;;4.67;100.00;102837.50;5279366;28;20026;-77
2023/01/28 01:05:43;;;;;;;10.02;9.00;;;;;;;4.64;100.00;102835.84;5280099;28;20127;-78
2023/01/28 01:08:15;;;;;;;10.15;8.43;;;;;;;4.64;100.00;102843.63;5297334;28;20036;-76
2023/01/28 01:10:46;;;;;;;10.10;9.10;;;;;;;4.64;100.00;102835.84;5279917;28;20024;-78
2023/01/28 01:13:17;;;;;;;10.38;9.27;;;;;;;4.63;100.00;102841.94;5278435;28;20308;-77
2023/01/28 01:15:48;;;;;;;9.95;8.65;;;;;;;4.62;100.00;102835.03;5299186;28;20031;-78
2023/01/28 01:18:20;;;;;;;10.13;9.02;;;;;;;4.66;100.00;102837.53;5300147;28;20023;-78
2023/01/28 01:20:55;;;;;;;10.90;9.38;;;;;;;4.68;100.00;102838.34;5298510;28;20024;-78
2023/01/28 01:23:28;;;;;;;10.70;9.50;;;;;;;4.67;100.00;102840.09;5296459;28;20040;-75
2023/01/28 01:26:00;;;;;;;11.32;10.18;;;;;;;4.60;100.00;102839.41;5298935;28;20081;-78
2023/01/28 01:28:32;;;;;;;9.65;8.65;;;;;;;4.58;100.00;102830.84;5298975;28;20035;-77
2023/01/28 01:31:10;;;;;;;10.45;8.65;;;;;;;4.71;100.00;102843.47;5298555;28;20085;-78
2023/01/28 01:33:42;;;;;;;9.77;8.77;;;;;;;4.57;100.00;102830.84;5299502;28;20032;-76
2023/01/28 01:36:16;;;;;;;9.98;8.98;;;;;;;4.55;100.00;102828.31;5279560;28;20024;-78
2023/01/28 01:38:47;;;;;;;9.68;8.68;;;;;;;4.56;100.00;102829.16;5299968;28;20062;-78
2023/01/28 01:41:30;;;;;;;10.18;9.10;;;;;;;4.66;100.00;102822.84;5296922;28;20462;-78
2023/01/28 01:44:03;;;;;;;10.40;9.40;;;;;;;4.49;100.00;102822.44;5298021;28;20055;-78
2023/01/28 01:46:37;;;;;;;;;;;;;;;5.08;100.00;102838.91;5300014;28;20031;-78
2023/01/28 01:49:25;;;;;;;12.25;9.23;;;;;;;4.74;100.00;102836.44;5298070;28;20280;-78
2023/01/28 01:52:06;;;;;;;10.30;9.20;;;;;;;4.56;100.00;102832.59;5293801;28;20032;-78
2023/01/28 01:54:40;;;;;;;9.88;8.60;;;;;;;4.52;100.00;102837.94;5296562;28;20055;-76
2023/01/28 01:57:16;;;;;;;10.65;9.55;;;;;;;4.51;100.00;102837.09;5293177;28;20144;-78
2023/01/28 01:59:47;;;;;;;11.18;9.95;;;;;;;4.39;100.00;102833.09;5295750;28;20453;-78
2023/01/28 02:02:19;;;;;;;10.40;9.32;;;;;;;4.42;100.00;102826.09;5294577;28;20055;-77
2023/01/28 02:04:50;;;;;;;9.35;8.20;;;;;;;4.47;100.00;102829.41;5293705;28;20093;-76
2023/01/28 02:07:21;;;;;;;10.70;9.57;;;;;;;4.42;100.00;102836.47;5297101;28;21201;-77
2023/01/28 02:09:53;;;;;;;10.93;9.77;;;;;;;4.42;100.00;102837.31;5294902;28;20519;-77
2023/01/28 02:12:33;;;;;;;10.30;9.27;;;;;;;4.56;100.00;102837.81;5294535;28;20031;-78
2023/01/28 02:15:08;;;;;;;10.90;9.80;;;;;;;4.48;100.00;102847.53;5295392;28;20085;-78
2023/01/28 02:17:41;;;;;;;11.10;9.80;;;;;;;4.43;100.00;102844.19;5296641;28;20030;-78
2023/01/28 02:20:21;;;;;;;11.10;9.50;;;;;;;4.43;100.00;102833.81;5295893;28;20027;-77
2023/01/28 02:23:07;;;;;;;11.38;9.60;;;;;;;4.53;100.00;102844.81;5277919;28;20067;-78
2023/01/28 02:25:57;;;;;;;10.30;9.20;;;;;;;4.55;100.00;102848.25;5279027;28;20030;-77
2023/01/28 02:28:46;;;;;;;11.73;9.45;;;;;;;4.60;100.00;102841.16;5294943;28;20039;-78
2023/01/28 02:31:27;;;;;;;10.93;9.82;;;;;;;4.46;100.00;102841.53;5293438;28;20027;-77
2023/01/28 02:34:16;;;;;;;10.40;9.10;;;;;;;4.47;100.00;102837.19;5295754;28;20024;-77
2023/01/28 02:36:54;;;;;;;10.27;9.18;;;;;;;4.36;100.00;102843.53;5296628;28;20071;-78
2023/01/28 02:39:30;;;;;;;10.57;9.25;;;;;;;4.30;100.00;102837.66;5299062;28;20040;-76
2023/01/28 02:42:20;;;;;;;9.98;8.90;;;;;;;4.43;100.00;102835.56;5296737;28;20028;-78
2023/01/28 02:44:51;;;;;;;9.55;8.55;;;;;;;4.26;100.00;102836.03;5298859;28;20055;-77
2023/01/28 02:50:19;;;;;;;10.27;9.27;;;;;;;4.34;100.00;102836.69;5297982;28;20089;-75
2023/01/28 02:56:19;;;;;;;9.68;8.68;;;;;;;4.54;100.00;102849.97;5298450;28;20485;-77
2023/01/28 02:59:30;;;;;;;9.68;8.65;;;;;;;4.61;100.00;102853.25;5298306;28;20111;-77
2023/01/28 03:02:15;;;;;;;9.50;8.50;;;;;;;4.42;100.00;102849.44;5294048;28;20031;-76
2023/01/28 03:05:13;;;;;;;9.38;8.38;;;;;;;4.43;100.00;102852.00;5297707;28;20052;-77
2023/01/28 03:07:45;;;;;;;10.43;8.98;;;;;;;4.27;100.00;102856.75;5298054;28;20047;-78
2023/01/28 03:10:20;;;;;;;9.93;8.93;;;;;;;4.32;100.00;102859.25;5295205;28;20423;-78
2023/01/28 03:39:18;;;;;;;8.60;7.70;;;;;;;4.26;100.00;102861.97;5296314;28;20020;-77
2023/01/28 03:42:04;;;;;;;9.02;8.13;;;;;;;4.42;100.00;102855.47;5297089;28;20032;-78
2023/01/28 03:44:49;;;;;;;10.25;9.00;;;;;;;4.20;100.00;102862.97;5295392;28;20020;-77
2023/01/28 03:47:29;;;;;;;8.63;7.72;;;;;;;4.44;100.00;102861.50;5295746;28;20055;-77
2023/01/28 03:50:00;;;;;;;8.38;7.55;;;;;;;4.25;100.00;102862.88;5296532;28;20461;-77
2023/01/28 03:52:32;;;;;;;8.40;7.50;;;;;;;4.26;100.00;102854.19;5293691;28;20116;-77
2023/01/28 03:55:12;;;;;;;8.38;7.40;;;;;;;4.18;100.00;102850.94;5279360;28;20031;-77
2023/01/28 03:57:44;;;;;;;8.23;7.43;;;;;;;4.22;100.00;102861.19;5297681;28;20097;-76
2023/01/28 04:00:17;;;;;;;8.90;8.00;;;;;;;4.19;100.00;102860.44;5277249;28;20099;-76
2023/01/28 04:02:48;;;;;;;8.13;7.32;;;;;;;4.25;100.00;102870.66;5294364;28;20037;-76
2023/01/28 04:05:19;;;;;;;8.02;7.22;;;;;;;4.12;100.00;102857.13;5295102;28;20483;-77
2023/01/28 04:07:54;;;;;;;8.98;8.07;;;;;;;4.25;100.00;102875.84;5297341;28;20231;-77
2023/01/28 04:10:26;;;;;;;9.07;8.18;;;;;;;4.14;100.00;102876.97;5295493;28;20020;-77
2023/01/28 04:12:57;;;;;;;9.88;8.88;;;;;;;4.15;100.00;102883.00;5295413;28;20043;-75
2023/01/28 04:15:29;;;;;;;10.00;9.00;;;;;;;4.15;100.00;102880.41;5281747;28;20106;-76
2023/01/28 04:18:01;;;;;;;10.17;9.07;;;;;;;4.17;100.00;102873.47;5301578;28;20031;-76
2023/01/28 04:20:32;;;;;;;9.95;8.95;;;;;;;4.09;100.00;102880.56;5299923;28;20047;-76
2023/01/28 04:23:05;;;;;;;10.18;9.05;;;;;;;4.08;100.00;102882.28;5281987;28;20103;-75
2023/01/28 04:25:37;;;;;;;;;;;;;;;4.67;100.00;102883.41;5300868;28;20031;-76
2023/01/28 04:28:08;;;;;;;10.65;9.52;;;;;;;4.10;100.00;102880.53;5298763;28;19915;-76
2023/01/28 04:30:39;;;;;;;11.38;9.70;;;;;;;4.08;100.00;102884.03;5298168;28;20503;-76
2023/01/28 04:33:11;;;;;;;10.60;9.50;;;;;;;4.04;100.00;102882.41;5298679;28;20402;-77
2023/01/28 04:35:42;;;;;;;11.05;9.95;;;;;;;3.99;100.00;102864.38;5280213;28;20036;-79
2023/01/28 04:38:13;;;;;;;10.65;9.55;;;;;;;4.06;100.00;102878.91;5299443;28;20078;-77
2023/01/28 04:40:48;;;;;;;11.38;10.18;;;;;;;4.14;100.00;102876.13;5281929;28;20055;-76
2023/01/28 04:43:20;;;;;;;12.35;10.52;;;;;;;4.08;100.00;102886.63;5296908;28;20016;-77
2023/01/28 04:45:51;;;;;;;10.95;9.63;;;;;;;4.09;100.00;102871.06;5301584;28;20034;-77
2023/01/28 04:48:22;;;;;;;10.98;9.82;;;;;;;3.99;100.00;102871.31;5299642;28;20408;-77
2023/01/28 04:50:54;;;;;;;12.43;11.13;;;;;;;4.11;100.00;102879.63;5299481;28;20424;-78
2023/01/28 04:53:25;;;;;;;11.60;10.10;;;;;;;4.03;100.00;102883.31;5300693;28;20024;-77
2023/01/28 04:55:57;;;;;;;11.23;9.90;;;;;;;4.01;100.00;102875.56;5295359;28;20380;-78
2023/01/28 04:58:28;;;;;;;11.25;10.05;;;;;;;4.01;100.00;102880.75;5297926;28;20427;-76
2023/01/28 05:00:59;;;;;;;11.75;10.13;;;;;;;3.93;100.00;102872.31;5298959;28;20491;-78
2023/01/28 05:03:30;;;;;;;10.52;9.43;;;;;;;4.02;100.00;102879.03;5296919;28;20374;-77
2023/01/28 05:06:03;;;;;;;11.57;10.38;;;;;;;3.99;100.00;102879.94;5299735;28;20020;-75
2023/01/28 05:08:35;;;;;;;11.15;9.88;;;;;;;4.02;100.00;102887.66;5300776;28;20528;-77
2023/01/28 05:11:06;;;;;;;11.45;10.25;;;;;;;3.98;100.00;102883.44;5299195;28;20032;-77
2023/01/28 05:13:38;;;;;;;11.40;10.20;;;;;;;3.98;100.00;102892.94;5298160;28;20112;-76
2023/01/28 05:16:09;;;;;;;11.45;10.05;;;;;;;3.97;100.00;102880.88;5299127;28;20120;-78
2023/01/28 05:18:41;;;;;;;12.52;10.27;;;;;;;3.93;100.00;102890.44;5280836;28;20397;-78
2023/01/28 05:21:13;;;;;;;11.32;9.95;;;;;;;3.98;100.00;102898.13;5299261;28;20020;-75
2023/01/28 05:23:44;;;;;;;13.50;10.75;;;;;;;3.93;100.00;102900.81;5298592;28;20405;-78
2023/01/28 05:26:15;;;;;;;11.93;10.63;;;;;;;3.92;100.00;102888.75;5298091;28;20032;-77
2023/01/28 05:28:47;;;;;;;12.23;10.77;;;;;;;3.97;100.00;102892.09;5299670;28;20027;-77
2023/01/28 05:31:18;;;;;;;10.88;9.77;;;;;;;3.99;100.00;102887.72;5296674;28;20029;-77
2023/01/28 05:33:51;;;;;;;11.10;9.90;;;;;;;3.95;100.00;102893.88;5296753;28;20511;-78
2023/01/28 05:36:23;;;;;;;11.60;10.25;;;;;;;3.84;100.00;102872.53;5297395;28;20052;-78
2023/01/28 05:38:54;;;;;;;11.70;9.93;;;;;;;3.85;100.00;102876.81;5278888;28;20107;-78
2023/01/28 05:41:25;;;;;;;11.05;9.65;;;;;;;3.86;100.00;102868.16;5299135;28;20020;-77
2023/01/28 05:43:57;;;;;;;11.02;9.85;;;;;;;3.85;100.00;102887.19;5301059;28;20028;-78
2023/01/28 05:46:28;;;;;;;11.88;10.50;;;;;;;3.86;100.00;102884.59;5299422;28;20397;-78
2023/01/28 05:48:59;;;;;;;16.75;10.13;;;;;;;3.80;100.00;102868.31;5298093;28;20123;-78
2023/01/28 05:51:30;;;;;;;10.40;9.25;;;;;;;3.83;100.00;102879.47;5299127;28;20020;-78
2023/01/28 05:54:02;;;;;;;11.85;9.50;;;;;;;3.80;100.00;102882.13;5297436;28;20035;-78
2023/01/28 05:56:35;;;;;;;11.45;10.35;;;;;;;3.71;100.00;102868.53;5300085;28;20038;-78
2023/01/28 05:59:06;;;;;;;10.77;9.50;;;;;;;3.78;100.00;102885.63;5299481;28;20436;-77
2023/01/28 06:01:38;;;;;;;10.32;9.18;;;;;;;3.72;100.00;102890.97;5298062;28;20035;-75
2023/01/28 06:04:09;;;;;;;9.82;8.82;;;;;;;3.74;100.00;102895.22;5278341;28;20024;-78
2023/01/28 06:06:41;;;;;;;9.48;8.50;;;;;;;3.72;100.00;102891.84;5298327;28;20026;-77
2023/01/28 06:09:12;;;;;;;9.25;8.25;;;;;;;3.70;100.00;102891.00;5299534;28;20032;-77
2023/01/28 06:11:44;;;;;;;9.10;8.20;;;;;;;3.68;100.00;102897.97;5297030;28;20032;-76
2023/01/28 06:14:15;;;;;;;11.60;9.38;;;;;;;3.66;100.00;102903.19;5281023;28;20020;-78
2023/01/28 06:16:47;;;;;;;9.20;8.20;;;;;;;3.69;100.00;102896.22;5299953;28;20047;-78
2023/01/28 06:19:18;;;;;;;9.23;8.20;;;;;;;3.66;100.00;102902.31;5298915;28;20026;-77
2023/01/28 06:21:49;;;;;;;8.80;7.85;;;;;;;3.68;100.00;102904.91;5296426;28;20036;-78
2023/01/28 06:24:20;;;;;;;8.73;7.82;;;;;;;3.56;100.00;102882.69;5296113;28;20420;-77
2023/01/28 06:26:52;;;;;;;8.77;7.88;;;;;;;3.65;100.00;102895.44;5299320;28;20032;-77
2023/01/28 06:29:23;;;;;;;8.60;7.70;;;;;;;3.65;100.00;102901.47;5299662;28;20020;-78
2023/01/28 06:31:54;;;;;;;8.90;7.75;;;;;;;3.66;100.00;102890.22;5299149;28;20033;-77
2023/01/28 06:34:26;;;;;;;8.55;7.65;;;;;;;3.65;100.00;102895.44;5279511;28;20024;-76
2023/01/28 06:36:57;;;;;;;8.75;7.85;;;;;;;3.73;100.00;102903.03;5296508;28;20389;-77
2023/01/28 06:39:32;;;;;;;10.07;8.13;;;;;;;3.70;100.00;102901.38;5297578;28;20030;-77
2023/01/28 06:42:03;;;;;;;10.27;8.55;;;;;;;3.66;100.00;102910.94;5280140;28;20047;-77
2023/01/28 06:44:34;;;;;;;9.70;7.45;;;;;;;3.53;100.00;102896.59;5296818;28;20481;-76
2023/01/28 06:47:06;;;;;;;8.45;7.50;;;;;;;3.57;100.00;102905.16;5278259;28;20361;-78
2023/01/28 06:49:37;;;;;;;9.40;8.18;;;;;;;3.56;100.00;102900.81;5297185;28;20072;-77
2023/01/28 06:52:08;;;;;;;9.93;8.38;;;;;;;3.64;100.00;102915.34;5299140;28;20070;-77
2023/01/28 06:54:40;;;;;;;11.10;8.93;;;;;;;3.66;100.00;102918.72;5295975;28;20039;-77
2023/01/28 06:57:11;;;;;;;11.77;8.90;;;;;;;3.59;100.00;102906.78;5297998;28;21119;-77
2023/01/28 06:59:42;;;;;;;10.20;9.15;;;;;;;3.64;100.00;102920.53;5298387;28;20023;-77
2023/01/28 07:02:13;;;;;;;10.57;9.10;;;;;;;3.59;100.00;102909.38;5293680;28;20020;-77
2023/01/28 07:04:45;;;;;;;9.88;8.82;;;;;;;3.61;100.00;102912.81;5293219;28;20107;-77
2023/01/28 07:07:16;;;;;;;10.00;8.82;;;;;;;3.54;100.00;102911.22;5296269;28;20028;-77
2023/01/28 07:09:47;;;;;;;12.10;10.23;;;;;;;3.58;100.00;102920.66;5279261;28;20039;-77
2023/01/28 07:12:19;;;;;;;10.75;9.65;;;;;;;3.60;100.00;102923.22;5298229;28;20024;-77
2023/01/28 07:14:50;;;;;;;10.25;9.13;;;;;;;3.58;100.00;102918.06;5298301;28;20035;-77
2023/01/28 07:17:21;;;;;;;10.30;8.70;;;;;;;3.65;100.00;102921.38;5296495;28;20476;-76
2023/01/28 07:19:53;;;;;;;12.85;11.05;;;;;;;3.58;100.00;102930.16;5298387;28;20633;-77
2023/01/28 07:22:24;;;;;;;12.60;10.68;;;;;;;3.57;100.00;102929.31;5292793;28;20036;-76
2023/01/28 07:24:57;;;;;;;11.80;10.10;;;;;;;3.59;100.00;102935.31;5272951;28;20046;-78
2023/01/28 07:27:28;;;;;;;10.95;9.68;;;;;;;3.59;100.00;102934.44;5276147;28;20049;-76
2023/01/28 07:30:00;;;;;;;11.70;9.65;;;;;;;3.60;100.00;102941.38;5275925;28;20036;-75
2023/01/28 07:32:31;;;;;;;10.70;9.50;;;;;;;3.60;100.00;102943.97;5295521;28;20035;-75
2023/01/28 07:35:02;;;;;;;11.10;9.25;;;;;;;3.55;100.00;102949.22;5278825;28;20024;-77
2023/01/28 07:37:34;;;;;;;10.93;9.68;;;;;;;3.61;100.00;102950.84;5296441;28;20024;-77
2023/01/28 07:40:06;;;;;;;11.13;9.63;;;;;;;3.58;100.00;102956.94;5277350;28;20045;-79
2023/01/28 07:42:37;;;;;;;11.68;9.90;;;;;;;3.58;100.00;102950.91;5295696;28;20035;-77
2023/01/28 07:45:09;;;;;;;11.50;9.50;;;;;;;3.60;100.00;102942.22;5277550;28;20024;-78
2023/01/28 07:47:41;;;;;;;10.15;9.15;;;;;;;3.58;100.00;102961.25;5298122;28;20032;-77
2023/01/28 07:50:12;;;;;;;11.60;10.35;;;;;;;3.54;100.00;102950.09;5299835;28;20135;-79
2023/01/28 07:52:44;;;;;;;10.77;9.30;;;;;;;3.57;100.00;102955.22;5301073;28;20032;-76
2023/01/28 07:55:16;;;;;;;11.50;10.30;;;;;;;3.53;100.00;102944.97;5300222;28;20046;-77
2023/01/28 07:57:54;;;;;;;11.27;9.80;;;;;;;3.64;100.00;102963.75;5299874;28;20793;-76
2023/01/28 08:00:27;;;;;;;11.75;10.35;;;;;;;3.49;100.00;102949.38;5299588;28;20473;-75
2023/01/28 08:03:01;;;;;;;10.25;9.02;;;;;;;3.64;100.00;102972.38;5278175;28;20020;-76
2023/01/28 08:05:50;;;;;;;11.75;10.05;;;;;;;3.75;100.00;102964.34;5299126;28;20442;-77
2023/01/28 08:08:23;;;;;;;11.77;10.07;;;;;;;3.53;100.00;102963.97;5300634;28;20083;-77
2023/01/28 08:10:54;;;;;;;12.25;10.30;;;;;;;3.48;100.00;102945.03;5281403;28;20431;-76
2023/01/28 08:13:25;;;;;;;10.73;9.60;;;;;;;3.51;100.00;102965.72;5298362;28;20032;-78
2023/01/28 08:15:58;;;;;;;10.65;9.40;;;;;;;3.53;100.00;102978.66;5280227;28;20032;-75
2023/01/28 08:18:29;;;;;;;11.15;9.95;;;;;;;3.51;100.00;102973.50;5300454;28;20016;-75
2023/01/28 08:21:00;;;;;;;10.50;9.20;;;;;;;3.53;100.00;102982.09;5299073;28;20393;-76
2023/01/28 08:23:33;;;;;;;11.30;9.63;;;;;;;3.54;100.00;102985.53;5299522;28;20106;-75
2023/01/28 08:26:04;;;;;;;11.52;10.02;;;;;;;3.59;100.00;103002.69;5284673;28;20035;-76
2023/01/28 08:28:36;;;;;;;11.48;9.70;;;;;;;3.54;100.00;102996.75;5280751;28;20024;-75
2023/01/28 08:31:07;;;;;;;11.93;9.60;;;;;;;3.65;100.00;102999.13;5281286;28;20034;-75
2023/01/28 08:33:38;;;;;;;10.70;9.57;;;;;;;3.69;100.00;102992.16;5296240;28;20034;-79
2023/01/28 08:36:09;;;;;;;10.80;9.32;;;;;;;3.69;100.00;102999.91;5282101;28;20047;-79
2023/01/28 08:38:42;;;;;;;11.15;10.00;;;;;;;3.68;100.00;102996.47;5298673;28;20069;-77
2023/01/28 08:41:13;;;;;;;10.50;9.38;;;;;;;3.78;100.00;102997.97;5299920;28;20028;-77
2023/01/28 08:43:46;;;;;;;11.18;10.00;;;;;;;3.77;100.00;103010.97;5299839;28;20139;-75
2023/01/28 08:46:17;;;;;;;13.40;10.73;;;;;;;3.66;100.00;102999.09;5300035;28;20077;-77
2023/01/28 08:48:49;;;;;;;12.50;10.48;;;;;;;3.72;100.00;103005.91;5278968;28;20040;-75
2023/01/28 08:51:21;;;;;;;13.60;10.75;;;;;;;3.80;100.00;103010.91;5299865;28;20028;-75
2023/01/28 08:53:52;;;;;;;12.43;10.93;;;;;;;3.77;100.00;103013.56;5298642;28;20378;-77
2023/01/28 08:56:23;;;;;;;14.38;11.93;;;;;;;3.80;100.00;102998.81;5281535;28;20032;-76
2023/01/28 08:58:55;;;;;;;11.60;9.98;;;;;;;3.86;100.00;103003.88;5298654;28;20073;-75
2023/01/28 09:01:28;;;;;;;11.00;9.90;;;;;;;3.86;100.00;103013.34;5298383;28;20215;-76
2023/01/28 09:03:59;;;;;;;11.45;9.60;;;;;;;3.87;100.00;103015.09;5294565;28;20107;-76
2023/01/28 09:06:31;;;;;;;12.70;11.18;;;;;;;3.84;100.00;103030.69;5299795;28;20114;-76
2023/01/28 09:09:02;;;;;;;11.82;9.77;;;;;;;3.87;100.00;103015.94;5299416;28;20153;-76
2023/01/28 09:11:33;;;;;;;12.07;10.60;;;;;;;3.85;100.00;103019.44;5298166;28;20020;-76
2023/01/28 09:14:05;;;;;;;11.07;9.88;;;;;;;3.95;100.00;103026.13;5280817;28;20133;-79
2023/01/28 09:16:36;;;;;;;12.05;10.70;;;;;;;3.90;100.00;103033.13;5277548;28;20161;-79
2023/01/28 09:19:07;;;;;;;12.70;10.77;;;;;;;3.90;100.00;103025.38;5299836;28;20090;-75
2023/01/28 09:21:39;;;;;;;11.45;10.20;;;;;;;3.95;100.00;103022.69;5300271;28;20027;-76
2023/01/28 09:24:11;;;;;;;12.10;10.27;;;;;;;3.91;100.00;103042.66;5296591;28;20020;-75
2023/01/28 09:26:43;;;;;;;11.77;10.52;;;;;;;3.94;100.00;103045.19;5297166;28;20033;-77
2023/01/28 09:29:14;;;;;;;12.20;9.98;;;;;;;3.93;100.00;103029.63;5297666;28;20063;-75
2023/01/28 09:31:46;;;;;;;11.43;10.23;;;;;;;3.92;100.00;103031.38;5297649;28;20030;-76
2023/01/28 09:34:17;;;;;;;11.63;10.43;;;;;;;3.87;100.00;103052.22;5297098;28;20036;-76
2023/01/28 09:36:48;;;;;;;11.35;10.15;;;;;;;3.83;100.00;103044.56;5278943;28;20020;-77
2023/01/28 09:39:20;;;;;;;11.85;10.57;;;;;;;3.84;100.00;103056.63;5280385;28;20020;-76
2023/01/28 09:42:30;;;;;;;11.68;10.48;;;;;;;4.11;100.00;103057.78;5295273;28;20042;-77
2023/01/28 09:45:14;;;;;;;11.65;9.95;;;;;;;4.01;100.00;103059.69;5299294;28;20471;-76
2023/01/28 09:47:54;;;;;;;11.25;10.05;;;;;;;4.01;100.00;103053.66;5300011;28;20110;-78
2023/01/28 09:50:42;;;;;;;11.43;10.23;;;;;;;4.05;100.00;103048.41;5296924;28;20444;-77
2023/01/28 09:53:18;;;;;;;11.32;10.10;;;;;;;4.01;100.00;103053.66;5298703;28;20046;-78
2023/01/28 09:56:11;;;;;;;11.00;9.90;;;;;;;4.18;100.00;103050.72;5297908;28;20495;-76
2023/01/28 09:58:43;;;;;;;14.00;10.93;;;;;;;3.93;100.00;103063.34;5297137;28;20028;-78
2023/01/28 10:01:31;;;;;;;10.80;9.55;;;;;;;3.83;100.00;103057.53;5295360;28;20085;-76
2023/01/28 10:04:49;;;;;;;11.98;10.35;;;;;;;4.13;100.00;103050.81;5295286;28;20081;-77
2023/01/28 10:08:00;;;;;;;12.27;10.57;;;;;;;4.04;100.00;103064.81;5296722;28;20049;-78
2023/01/28 10:10:41;;;;;;;12.40;10.55;;;;;;;3.92;100.00;103080.66;5255940;28;20206;-76
2023/01/28 10:13:24;;;;;;;12.35;10.50;;;;;;;4.00;100.00;103077.91;5284676;28;20238;-75
2023/01/28 10:16:02;;;;;;;;;;;;;;;4.41;100.00;103069.19;5270294;28;20089;-78
2023/01/28 10:18:42;;;;;;;11.18;9.98;;;;;;;3.96;100.00;103069.31;5264688;28;19945;-78
2023/01/28 10:21:40;;;;;;;12.07;10.80;;;;;;;4.07;100.00;103074.28;5287359;28;20024;-78
2023/01/28 10:24:30;;;;;;;11.57;10.48;;;;;;;4.02;100.00;103079.59;5293119;28;20073;-78
2023/01/28 10:27:13;;;;;;;11.13;10.02;;;;;;;3.94;100.00;103084.09;5292604;28;20039;-75
2023/01/28 10:29:46;;;;;;;11.02;9.93;;;;;;;3.83;100.00;103086.03;5277332;28;20047;-75
2023/01/28 10:32:25;;;;;;;10.70;9.60;;;;;;;3.85;100.00;103079.91;5294487;28;20489;-77
2023/01/28 10:35:01;;;;;;;11.10;8.90;;;;;;;3.72;100.00;103080.22;5272453;28;20040;-77
2023/01/28 10:37:35;;;;;;;10.93;9.30;;;;;;;3.81;100.00;103080.03;5291234;28;20027;-75
2023/01/28 10:40:11;;;;;;;;;;;;;;;4.34;100.00;103068.47;5294090;28;20032;-78
2023/01/28 10:42:43;;;;;;;10.05;9.05;;;;;;;3.84;100.00;103082.56;5274075;28;19912;-75
2023/01/28 10:45:33;;;;;;;9.30;8.33;;;;;;;4.02;100.00;103061.44;5294774;28;20537;-76
2023/01/28 10:48:25;;;;;;;8.82;7.95;;;;;;;3.94;100.00;103067.66;5276750;28;20294;-75
2023/01/28 10:51:01;;;;;;;10.00;9.00;;;;;;;3.94;100.00;103065.94;5295778;28;20076;-77
2023/01/28 10:53:37;;;;;;;9.00;8.10;;;;;;;3.98;100.00;103066.69;5293558;28;20023;-77
2023/01/28 10:56:28;;;;;;;11.32;9.63;;;;;;;4.08;100.00;103050.06;5297204;28;20032;-78
2023/01/28 10:59:06;;;;;;;10.90;9.38;;;;;;;4.03;100.00;103057.09;5294611;28;20398;-77
2023/01/28 11:01:40;;;;;;;11.43;8.45;;;;;;;3.93;100.00;103050.38;5297265;28;20077;-78
2023/01/28 11:04:18;;;;;;;11.55;9.20;;;;;;;4.11;100.00;103071.59;5297098;28;20027;-78
2023/01/28 11:06:55;;;;;;;10.23;9.13;;;;;;;4.06;100.00;103063.06;5293141;28;20050;-78
2023/01/28 11:09:33;;;;;;;10.55;8.52;;;;;;;4.01;100.00;103077.84;5294201;28;20042;-77
2023/01/28 11:12:12;;;;;;;8.80;7.90;;;;;;;4.07;100.00;103077.72;5297814;28;20016;-78
2023/01/28 11:15:00;;;;;;;9.82;8.80;;;;;;;4.03;100.00;103065.72;5295523;28;20023;-76
2023/01/28 11:17:34;;;;;;;10.30;9.13;;;;;;;3.92;100.00;103059.91;5298960;28;20074;-78
2023/01/28 11:20:18;;;;;;;11.32;9.50;;;;;;;3.98;100.00;103058.91;5297310;28;20023;-78
2023/01/28 11:22:50;;;;;;;9.45;8.38;;;;;;;3.99;100.00;103060.63;5288943;28;20024;-78
2023/01/28 11:25:26;;;;;;;10.77;9.68;;;;;;;3.96;100.00;103058.09;5288730;28;20093;-77
2023/01/28 11:27:59;;;;;;;11.32;9.70;;;;;;;3.97;100.00;103052.88;5295375;28;20372;-78
2023/01/28 11:30:36;;;;;;;;;;;;;;;4.61;100.00;103047.94;5294536;28;20027;-77
2023/01/28 11:33:36;;;;;;;11.30;9.73;;;;;;;4.32;100.00;103027.91;5295696;28;19998;-78
2023/01/28 11:36:14;;;;;;;10.27;9.18;;;;;;;4.09;100.00;103025.81;5278853;28;20043;-77
2023/01/28 11:39:01;;;;;;;9.88;8.23;;;;;;;4.22;100.00;103029.00;5297544;28;20023;-77
2023/01/28 11:41:35;;;;;;;8.95;8.05;;;;;;;4.19;100.00;103027.31;5292281;28;20036;-78
2023/01/28 11:44:19;;;;;;;9.82;8.80;;;;;;;4.28;100.00;103031.44;5296629;28;20104;-78
2023/01/28 11:46:55;;;;;;;12.13;8.93;;;;;;;4.26;100.00;103022.84;5298032;28;20020;-74
2023/01/28 11:49:35;;;;;;;9.90;8.45;;;;;;;4.37;100.00;103011.31;5298034;28;20036;-78
2023/01/28 11:52:32;;;;;;;10.73;9.13;;;;;;;4.58;100.00;102996.09;5275745;28;20039;-78
2023/01/28 11:55:22;;;;;;;12.32;10.75;;;;;;;4.54;100.00;102997.91;5293302;28;20031;-78
2023/01/28 11:58:26;;;;;;;10.93;9.70;;;;;;;4.60;100.00;102987.38;5296524;28;20030;-77
2023/01/28 12:01:19;;;;;;;10.77;9.68;;;;;;;4.43;100.00;102971.38;5296340;28;20034;-75
2023/01/28 12:04:08;;;;;;;11.55;9.30;;;;;;;4.48;100.00;102955.72;5297590;28;20032;-78
2023/01/28 12:06:51;;;;;;;12.95;11.25;;;;;;;4.59;100.00;102938.13;5299155;28;20032;-77
2023/01/28 12:09:42;;;;;;;11.77;9.73;;;;;;;4.62;100.00;102925.03;5296703;28;20028;-75
2023/01/28 12:12:22;;;;;;;11.32;10.13;;;;;;;4.38;100.00;102929.97;5279287;28;20028;-78
2023/01/28 12:15:03;;;;;;;11.02;9.60;;;;;;;4.51;100.00;102935.72;5295270;28;20031;-78
2023/01/28 12:18:02;;;;;;;11.80;9.63;;;;;;;4.73;100.00;102930.78;5299024;28;20028;-78
2023/01/28 12:21:09;;;;;;;11.27;9.88;;;;;;;4.72;100.00;102923.91;5298566;28;20117;-77
2023/01/28 12:24:00;;;;;;;11.52;10.30;;;;;;;4.63;100.00;102924.16;5297354;28;20437;-78
2023/01/28 12:26:59;;;;;;;13.13;10.93;;;;;;;4.44;100.00;102925.53;5298610;28;20047;-77
2023/01/28 12:29:53;;;;;;;11.77;10.30;;;;;;;4.71;100.00;102935.19;5297809;28;20110;-76
2023/01/28 12:32:39;;;;;;;12.20;10.32;;;;;;;4.74;100.00;102911.75;5298548;28;20975;-77